Allerton, Illinois
Current Conditions -  °F | °C
As of 3:53 AM on Saturday 22 Nov 2014 (Local Time) from KCMI Reporting Station
Overcast Overcast  
Wind Chill: -2°   Ceiling: 4800
Heat Index:   Visibility: 10mi
Dew Point: -1°   Wind: 13mph
Humidity: 79%   Direction: 180°S
Pressure: 30.15"   Gusts: NA
Location:  39.91°N, 87.94°W
Report Text: KCMI 220953Z AUTO 18011KT 10SM BKN048 OVC070 03/M01 A3015 RMK AO2 SLP215 T00281006 $
Loading
Personal Weather Stations






























Interactive Weather Map New forecast layout! Learn more

10-Day Weather Forecast

Advertisements
Track Severe Weather on mobile